sensor_id;sensor_type;location;lat;lon;timestamp;P1;durP1;ratioP1;P2;durP2;ratioP2
33413;SDS011;60055;41.884;12.534;2023-12-20T00:00:12;75.47;;;36.13;;
33413;SDS011;60055;41.884;12.534;2023-12-20T00:02:38;68.45;;;36.95;;
33413;SDS011;60055;41.884;12.534;2023-12-20T00:05:03;66.70;;;36.08;;
33413;SDS011;60055;41.884;12.534;2023-12-20T00:07:29;64.20;;;32.95;;
33413;SDS011;60055;41.884;12.534;2023-12-20T00:09:55;64.93;;;33.88;;
33413;SDS011;60055;41.884;12.534;2023-12-20T00:12:20;63.13;;;34.13;;
33413;SDS011;60055;41.884;12.534;2023-12-20T00:14:45;64.30;;;32.60;;
33413;SDS011;60055;41.884;12.534;2023-12-20T00:17:11;61.38;;;32.60;;
33413;SDS011;60055;41.884;12.534;2023-12-20T00:19:36;60.28;;;32.85;;
33413;SDS011;60055;41.884;12.534;2023-12-20T00:22:02;62.90;;;33.33;;
33413;SDS011;60055;41.884;12.534;2023-12-20T00:24:27;67.32;;;33.10;;
33413;SDS011;60055;41.884;12.534;2023-12-20T00:26:53;58.97;;;32.15;;
33413;SDS011;60055;41.884;12.534;2023-12-20T00:29:18;60.58;;;33.08;;
33413;SDS011;60055;41.884;12.534;2023-12-20T00:31:43;60.58;;;32.50;;
33413;SDS011;60055;41.884;12.534;2023-12-20T00:34:09;60.28;;;33.20;;
33413;SDS011;60055;41.884;12.534;2023-12-20T00:36:34;58.63;;;32.50;;
33413;SDS011;60055;41.884;12.534;2023-12-20T00:38:59;61.10;;;32.55;;
33413;SDS011;60055;41.884;12.534;2023-12-20T00:41:25;59.65;;;32.75;;
33413;SDS011;60055;41.884;12.534;2023-12-20T00:43:50;52.45;;;31.30;;
33413;SDS011;60055;41.884;12.534;2023-12-20T00:46:16;56.55;;;32.30;;
33413;SDS011;60055;41.884;12.534;2023-12-20T00:48:41;56.95;;;30.42;;
33413;SDS011;60055;41.884;12.534;2023-12-20T00:51:07;54.25;;;31.25;;
33413;SDS011;60055;41.884;12.534;2023-12-20T00:53:33;53.42;;;30.50;;
33413;SDS011;60055;41.884;12.534;2023-12-20T00:55:58;54.63;;;30.60;;
33413;SDS011;60055;41.884;12.534;2023-12-20T00:58:24;50.92;;;28.63;;
33413;SDS011;60055;41.884;12.534;2023-12-20T01:00:49;53.55;;;29.80;;
33413;SDS011;60055;41.884;12.534;2023-12-20T01:03:15;51.70;;;28.95;;
33413;SDS011;60055;41.884;12.534;2023-12-20T01:05:40;54.75;;;30.08;;
33413;SDS011;60055;41.884;12.534;2023-12-20T01:08:06;57.83;;;30.70;;
33413;SDS011;60055;41.884;12.534;2023-12-20T01:10:31;52.33;;;30.33;;
33413;SDS011;60055;41.884;12.534;2023-12-20T01:12:57;48.95;;;30.10;;
33413;SDS011;60055;41.884;12.534;2023-12-20T01:15:22;52.55;;;30.48;;
33413;SDS011;60055;41.884;12.534;2023-12-20T01:17:48;61.42;;;29.70;;
33413;SDS011;60055;41.884;12.534;2023-12-20T01:20:14;53.28;;;29.63;;
33413;SDS011;60055;41.884;12.534;2023-12-20T01:22:40;51.88;;;28.58;;
33413;SDS011;60055;41.884;12.534;2023-12-20T01:25:07;49.63;;;27.83;;
33413;SDS011;60055;41.884;12.534;2023-12-20T01:27:33;55.75;;;30.45;;
33413;SDS011;60055;41.884;12.534;2023-12-20T01:29:58;52.13;;;28.48;;
33413;SDS011;60055;41.884;12.534;2023-12-20T01:32:24;47.38;;;28.75;;
33413;SDS011;60055;41.884;12.534;2023-12-20T01:34:49;56.53;;;28.67;;
33413;SDS011;60055;41.884;12.534;2023-12-20T01:37:15;51.53;;;29.45;;
33413;SDS011;60055;41.884;12.534;2023-12-20T01:39:40;50.60;;;28.73;;
33413;SDS011;60055;41.884;12.534;2023-12-20T01:42:06;49.47;;;28.02;;
33413;SDS011;60055;41.884;12.534;2023-12-20T01:44:31;52.78;;;28.85;;
33413;SDS011;60055;41.884;12.534;2023-12-20T01:46:56;52.33;;;29.15;;
33413;SDS011;60055;41.884;12.534;2023-12-20T01:49:22;51.80;;;28.05;;
33413;SDS011;60055;41.884;12.534;2023-12-20T01:51:48;55.60;;;28.70;;
33413;SDS011;60055;41.884;12.534;2023-12-20T01:54:15;56.97;;;29.55;;
33413;SDS011;60055;41.884;12.534;2023-12-20T01:56:41;52.78;;;28.88;;
33413;SDS011;60055;41.884;12.534;2023-12-20T01:59:07;51.80;;;28.75;;
33413;SDS011;60055;41.884;12.534;2023-12-20T02:01:34;48.70;;;26.58;;
33413;SDS011;60055;41.884;12.534;2023-12-20T02:04:00;56.00;;;28.10;;
33413;SDS011;60055;41.884;12.534;2023-12-20T02:06:29;48.97;;;27.42;;
33413;SDS011;60055;41.884;12.534;2023-12-20T02:08:57;49.47;;;27.23;;
33413;SDS011;60055;41.884;12.534;2023-12-20T02:11:22;49.95;;;27.30;;
33413;SDS011;60055;41.884;12.534;2023-12-20T02:13:48;53.90;;;28.42;;
33413;SDS011;60055;41.884;12.534;2023-12-20T02:16:13;52.05;;;28.65;;
33413;SDS011;60055;41.884;12.534;2023-12-20T02:18:39;51.40;;;28.77;;
33413;SDS011;60055;41.884;12.534;2023-12-20T02:21:05;50.88;;;27.05;;
33413;SDS011;60055;41.884;12.534;2023-12-20T02:23:31;52.53;;;28.10;;
33413;SDS011;60055;41.884;12.534;2023-12-20T02:25:56;50.17;;;28.17;;
33413;SDS011;60055;41.884;12.534;2023-12-20T02:28:22;51.08;;;29.05;;
33413;SDS011;60055;41.884;12.534;2023-12-20T02:30:48;52.65;;;28.38;;
33413;SDS011;60055;41.884;12.534;2023-12-20T02:33:14;53.22;;;28.77;;
33413;SDS011;60055;41.884;12.534;2023-12-20T02:35:40;47.30;;;28.05;;
33413;SDS011;60055;41.884;12.534;2023-12-20T02:38:06;48.30;;;27.60;;
33413;SDS011;60055;41.884;12.534;2023-12-20T02:40:31;48.90;;;28.27;;
33413;SDS011;60055;41.884;12.534;2023-12-20T02:42:57;45.72;;;28.23;;
33413;SDS011;60055;41.884;12.534;2023-12-20T02:45:22;49.60;;;27.52;;
33413;SDS011;60055;41.884;12.534;2023-12-20T02:47:48;52.88;;;28.13;;
33413;SDS011;60055;41.884;12.534;2023-12-20T02:50:13;46.30;;;27.73;;
33413;SDS011;60055;41.884;12.534;2023-12-20T02:52:39;48.22;;;27.50;;
33413;SDS011;60055;41.884;12.534;2023-12-20T02:55:07;48.80;;;28.05;;
33413;SDS011;60055;41.884;12.534;2023-12-20T02:57:33;46.17;;;26.30;;
33413;SDS011;60055;41.884;12.534;2023-12-20T03:00:01;47.40;;;27.40;;
33413;SDS011;60055;41.884;12.534;2023-12-20T03:02:26;50.90;;;28.30;;
33413;SDS011;60055;41.884;12.534;2023-12-20T03:04:52;52.92;;;28.42;;
33413;SDS011;60055;41.884;12.534;2023-12-20T03:07:17;44.67;;;26.65;;
33413;SDS011;60055;41.884;12.534;2023-12-20T03:09:43;47.78;;;28.30;;
33413;SDS011;60055;41.884;12.534;2023-12-20T03:12:08;47.13;;;28.20;;
33413;SDS011;60055;41.884;12.534;2023-12-20T03:14:33;51.20;;;27.70;;
33413;SDS011;60055;41.884;12.534;2023-12-20T03:16:59;47.78;;;28.25;;
33413;SDS011;60055;41.884;12.534;2023-12-20T03:19:24;47.60;;;28.27;;
33413;SDS011;60055;41.884;12.534;2023-12-20T03:21:50;46.03;;;27.05;;
33413;SDS011;60055;41.884;12.534;2023-12-20T03:24:15;51.13;;;29.48;;
33413;SDS011;60055;41.884;12.534;2023-12-20T03:26:41;49.83;;;28.30;;
33413;SDS011;60055;41.884;12.534;2023-12-20T03:29:06;51.97;;;28.65;;
33413;SDS011;60055;41.884;12.534;2023-12-20T03:31:31;48.63;;;29.55;;
33413;SDS011;60055;41.884;12.534;2023-12-20T03:33:57;47.20;;;28.02;;
33413;SDS011;60055;41.884;12.534;2023-12-20T03:36:23;50.17;;;29.50;;
33413;SDS011;60055;41.884;12.534;2023-12-20T03:38:48;54.33;;;28.40;;
33413;SDS011;60055;41.884;12.534;2023-12-20T03:41:13;50.25;;;28.02;;
33413;SDS011;60055;41.884;12.534;2023-12-20T03:43:39;49.28;;;28.45;;
33413;SDS011;60055;41.884;12.534;2023-12-20T03:46:04;50.83;;;28.42;;
33413;SDS011;60055;41.884;12.534;2023-12-20T03:48:30;49.20;;;29.20;;
33413;SDS011;60055;41.884;12.534;2023-12-20T03:50:56;46.92;;;27.45;;
33413;SDS011;60055;41.884;12.534;2023-12-20T03:53:22;48.83;;;28.05;;
33413;SDS011;60055;41.884;12.534;2023-12-20T03:55:47;48.70;;;27.95;;
33413;SDS011;60055;41.884;12.534;2023-12-20T03:58:13;48.65;;;27.52;;
33413;SDS011;60055;41.884;12.534;2023-12-20T04:00:38;49.97;;;28.52;;
33413;SDS011;60055;41.884;12.534;2023-12-20T04:03:04;51.65;;;28.10;;
33413;SDS011;60055;41.884;12.534;2023-12-20T04:05:29;50.25;;;28.77;;
33413;SDS011;60055;41.884;12.534;2023-12-20T04:07:55;49.67;;;28.45;;
33413;SDS011;60055;41.884;12.534;2023-12-20T04:10:20;56.70;;;30.23;;
33413;SDS011;60055;41.884;12.534;2023-12-20T04:12:46;50.17;;;28.83;;
33413;SDS011;60055;41.884;12.534;2023-12-20T04:15:11;54.53;;;28.75;;
33413;SDS011;60055;41.884;12.534;2023-12-20T04:17:37;46.35;;;28.10;;
33413;SDS011;60055;41.884;12.534;2023-12-20T04:20:02;49.00;;;29.23;;
33413;SDS011;60055;41.884;12.534;2023-12-20T04:22:28;50.67;;;28.33;;
33413;SDS011;60055;41.884;12.534;2023-12-20T04:24:53;50.28;;;28.35;;
33413;SDS011;60055;41.884;12.534;2023-12-20T04:27:19;52.78;;;29.77;;
33413;SDS011;60055;41.884;12.534;2023-12-20T04:29:44;48.88;;;28.67;;
33413;SDS011;60055;41.884;12.534;2023-12-20T04:32:10;51.45;;;29.83;;
33413;SDS011;60055;41.884;12.534;2023-12-20T04:34:35;54.38;;;29.73;;
33413;SDS011;60055;41.884;12.534;2023-12-20T04:37:01;48.10;;;27.23;;
33413;SDS011;60055;41.884;12.534;2023-12-20T04:39:27;47.55;;;28.27;;
33413;SDS011;60055;41.884;12.534;2023-12-20T04:41:52;50.60;;;29.90;;
33413;SDS011;60055;41.884;12.534;2023-12-20T04:44:17;55.70;;;27.83;;
33413;SDS011;60055;41.884;12.534;2023-12-20T04:46:43;53.72;;;28.55;;
33413;SDS011;60055;41.884;12.534;2023-12-20T04:49:09;49.35;;;28.27;;
33413;SDS011;60055;41.884;12.534;2023-12-20T04:51:34;48.03;;;27.50;;
33413;SDS011;60055;41.884;12.534;2023-12-20T04:54:00;51.90;;;29.50;;
33413;SDS011;60055;41.884;12.534;2023-12-20T04:56:26;52.90;;;28.75;;
33413;SDS011;60055;41.884;12.534;2023-12-20T04:58:51;52.92;;;28.65;;
33413;SDS011;60055;41.884;12.534;2023-12-20T05:01:17;44.75;;;27.52;;
33413;SDS011;60055;41.884;12.534;2023-12-20T05:03:42;54.22;;;29.33;;
33413;SDS011;60055;41.884;12.534;2023-12-20T05:06:09;53.25;;;29.80;;
33413;SDS011;60055;41.884;12.534;2023-12-20T05:08:34;49.67;;;29.83;;
33413;SDS011;60055;41.884;12.534;2023-12-20T05:11:00;47.45;;;29.35;;
33413;SDS011;60055;41.884;12.534;2023-12-20T05:13:25;51.35;;;29.23;;
33413;SDS011;60055;41.884;12.534;2023-12-20T05:15:51;52.85;;;29.40;;
33413;SDS011;60055;41.884;12.534;2023-12-20T05:18:16;51.47;;;30.70;;
33413;SDS011;60055;41.884;12.534;2023-12-20T05:20:42;50.83;;;29.38;;
33413;SDS011;60055;41.884;12.534;2023-12-20T05:23:07;52.83;;;28.42;;
33413;SDS011;60055;41.884;12.534;2023-12-20T05:25:33;56.80;;;31.30;;
33413;SDS011;60055;41.884;12.534;2023-12-20T05:27:58;58.03;;;30.98;;
33413;SDS011;60055;41.884;12.534;2023-12-20T05:30:24;56.67;;;31.63;;
33413;SDS011;60055;41.884;12.534;2023-12-20T05:32:49;53.50;;;31.02;;
33413;SDS011;60055;41.884;12.534;2023-12-20T05:35:15;55.80;;;32.97;;
33413;SDS011;60055;41.884;12.534;2023-12-20T05:37:40;54.67;;;32.08;;
33413;SDS011;60055;41.884;12.534;2023-12-20T05:40:06;59.97;;;31.85;;
33413;SDS011;60055;41.884;12.534;2023-12-20T05:42:35;56.92;;;31.65;;
33413;SDS011;60055;41.884;12.534;2023-12-20T05:45:01;55.63;;;31.75;;
33413;SDS011;60055;41.884;12.534;2023-12-20T05:47:27;59.08;;;32.20;;
33413;SDS011;60055;41.884;12.534;2023-12-20T05:49:52;55.15;;;32.13;;
33413;SDS011;60055;41.884;12.534;2023-12-20T05:52:18;55.28;;;30.83;;
33413;SDS011;60055;41.884;12.534;2023-12-20T05:54:43;51.00;;;31.20;;
33413;SDS011;60055;41.884;12.534;2023-12-20T05:57:09;56.75;;;31.55;;
33413;SDS011;60055;41.884;12.534;2023-12-20T05:59:34;56.72;;;31.50;;
33413;SDS011;60055;41.884;12.534;2023-12-20T06:02:00;61.38;;;32.17;;
33413;SDS011;60055;41.884;12.534;2023-12-20T06:04:25;60.13;;;32.50;;
33413;SDS011;60055;41.884;12.534;2023-12-20T06:06:50;55.28;;;31.40;;
33413;SDS011;60055;41.884;12.534;2023-12-20T06:09:16;55.28;;;32.13;;
33413;SDS011;60055;41.884;12.534;2023-12-20T06:11:41;55.03;;;31.88;;
33413;SDS011;60055;41.884;12.534;2023-12-20T06:14:07;59.22;;;32.78;;
33413;SDS011;60055;41.884;12.534;2023-12-20T06:16:32;57.50;;;31.55;;
33413;SDS011;60055;41.884;12.534;2023-12-20T06:18:58;57.58;;;31.63;;
33413;SDS011;60055;41.884;12.534;2023-12-20T06:21:23;53.65;;;30.73;;
33413;SDS011;60055;41.884;12.534;2023-12-20T06:23:49;59.47;;;32.70;;
33413;SDS011;60055;41.884;12.534;2023-12-20T06:26:14;60.67;;;32.53;;
33413;SDS011;60055;41.884;12.534;2023-12-20T06:28:40;57.63;;;32.25;;
33413;SDS011;60055;41.884;12.534;2023-12-20T06:31:05;55.83;;;31.80;;
33413;SDS011;60055;41.884;12.534;2023-12-20T06:33:30;55.58;;;31.80;;
33413;SDS011;60055;41.884;12.534;2023-12-20T06:35:56;50.40;;;30.88;;
33413;SDS011;60055;41.884;12.534;2023-12-20T06:38:22;56.00;;;32.13;;
33413;SDS011;60055;41.884;12.534;2023-12-20T06:40:48;57.33;;;31.77;;
33413;SDS011;60055;41.884;12.534;2023-12-20T06:43:13;52.47;;;28.73;;
33413;SDS011;60055;41.884;12.534;2023-12-20T06:45:39;58.72;;;32.70;;
33413;SDS011;60055;41.884;12.534;2023-12-20T06:48:04;61.58;;;32.08;;
33413;SDS011;60055;41.884;12.534;2023-12-20T06:50:30;58.90;;;32.67;;
33413;SDS011;60055;41.884;12.534;2023-12-20T06:52:56;60.80;;;32.25;;
33413;SDS011;60055;41.884;12.534;2023-12-20T06:55:21;55.88;;;32.15;;
33413;SDS011;60055;41.884;12.534;2023-12-20T06:57:46;63.03;;;33.22;;
33413;SDS011;60055;41.884;12.534;2023-12-20T07:00:12;56.38;;;31.50;;
33413;SDS011;60055;41.884;12.534;2023-12-20T07:02:38;59.95;;;32.30;;
33413;SDS011;60055;41.884;12.534;2023-12-20T07:05:03;55.97;;;32.67;;
33413;SDS011;60055;41.884;12.534;2023-12-20T07:07:29;60.47;;;31.13;;
33413;SDS011;60055;41.884;12.534;2023-12-20T07:09:55;54.13;;;31.55;;
33413;SDS011;60055;41.884;12.534;2023-12-20T07:12:20;64.00;;;33.22;;
33413;SDS011;60055;41.884;12.534;2023-12-20T07:14:46;55.88;;;31.83;;
33413;SDS011;60055;41.884;12.534;2023-12-20T07:17:12;63.80;;;32.95;;
33413;SDS011;60055;41.884;12.534;2023-12-20T07:19:39;56.90;;;31.67;;
33413;SDS011;60055;41.884;12.534;2023-12-20T07:22:05;52.20;;;30.83;;
33413;SDS011;60055;41.884;12.534;2023-12-20T07:24:31;57.03;;;31.55;;
33413;SDS011;60055;41.884;12.534;2023-12-20T07:26:57;59.85;;;32.63;;
33413;SDS011;60055;41.884;12.534;2023-12-20T07:29:24;54.17;;;31.23;;
33413;SDS011;60055;41.884;12.534;2023-12-20T07:31:49;54.65;;;30.40;;
33413;SDS011;60055;41.884;12.534;2023-12-20T07:34:17;58.45;;;28.80;;
33413;SDS011;60055;41.884;12.534;2023-12-20T07:36:42;60.92;;;32.08;;
33413;SDS011;60055;41.884;12.534;2023-12-20T07:39:08;59.88;;;30.60;;
33413;SDS011;60055;41.884;12.534;2023-12-20T07:41:33;58.92;;;31.85;;
33413;SDS011;60055;41.884;12.534;2023-12-20T07:43:58;61.47;;;32.90;;
33413;SDS011;60055;41.884;12.534;2023-12-20T07:46:24;62.15;;;32.33;;
33413;SDS011;60055;41.884;12.534;2023-12-20T07:48:49;61.13;;;30.23;;
33413;SDS011;60055;41.884;12.534;2023-12-20T07:51:15;57.95;;;31.58;;
33413;SDS011;60055;41.884;12.534;2023-12-20T07:53:41;56.05;;;30.52;;
33413;SDS011;60055;41.884;12.534;2023-12-20T07:56:16;61.70;;;32.20;;
33413;SDS011;60055;41.884;12.534;2023-12-20T07:58:42;54.70;;;30.88;;
33413;SDS011;60055;41.884;12.534;2023-12-20T08:01:08;55.30;;;30.73;;
33413;SDS011;60055;41.884;12.534;2023-12-20T08:03:34;54.95;;;31.52;;
33413;SDS011;60055;41.884;12.534;2023-12-20T08:05:59;55.60;;;30.98;;
33413;SDS011;60055;41.884;12.534;2023-12-20T08:08:25;57.03;;;31.33;;
33413;SDS011;60055;41.884;12.534;2023-12-20T08:10:51;55.15;;;30.30;;
33413;SDS011;60055;41.884;12.534;2023-12-20T08:13:16;50.72;;;29.58;;
33413;SDS011;60055;41.884;12.534;2023-12-20T08:15:41;60.80;;;31.05;;
33413;SDS011;60055;41.884;12.534;2023-12-20T08:18:07;58.28;;;30.20;;
33413;SDS011;60055;41.884;12.534;2023-12-20T08:20:32;60.58;;;30.73;;
33413;SDS011;60055;41.884;12.534;2023-12-20T08:22:58;53.47;;;28.95;;
33413;SDS011;60055;41.884;12.534;2023-12-20T08:25:23;54.58;;;30.45;;
33413;SDS011;60055;41.884;12.534;2023-12-20T08:27:49;62.47;;;31.48;;
33413;SDS011;60055;41.884;12.534;2023-12-20T08:30:14;67.25;;;32.58;;
33413;SDS011;60055;41.884;12.534;2023-12-20T08:32:42;73.88;;;31.42;;
33413;SDS011;60055;41.884;12.534;2023-12-20T08:35:07;68.05;;;31.50;;
33413;SDS011;60055;41.884;12.534;2023-12-20T08:37:33;64.50;;;30.63;;
33413;SDS011;60055;41.884;12.534;2023-12-20T08:39:59;60.42;;;30.02;;
33413;SDS011;60055;41.884;12.534;2023-12-20T08:42:24;69.90;;;31.40;;
33413;SDS011;60055;41.884;12.534;2023-12-20T08:44:55;61.75;;;31.83;;
33413;SDS011;60055;41.884;12.534;2023-12-20T08:47:21;52.95;;;31.02;;
33413;SDS011;60055;41.884;12.534;2023-12-20T08:49:46;58.85;;;31.38;;
33413;SDS011;60055;41.884;12.534;2023-12-20T08:52:12;56.80;;;32.28;;
33413;SDS011;60055;41.884;12.534;2023-12-20T08:54:37;55.95;;;29.98;;
33413;SDS011;60055;41.884;12.534;2023-12-20T08:57:03;55.95;;;30.00;;
33413;SDS011;60055;41.884;12.534;2023-12-20T08:59:31;53.58;;;29.42;;
33413;SDS011;60055;41.884;12.534;2023-12-20T09:01:56;57.13;;;29.98;;
33413;SDS011;60055;41.884;12.534;2023-12-20T09:04:21;53.08;;;29.67;;
33413;SDS011;60055;41.884;12.534;2023-12-20T09:06:47;54.53;;;29.45;;
33413;SDS011;60055;41.884;12.534;2023-12-20T09:09:12;45.38;;;26.95;;
33413;SDS011;60055;41.884;12.534;2023-12-20T09:11:41;53.33;;;27.83;;
33413;SDS011;60055;41.884;12.534;2023-12-20T09:14:07;46.97;;;26.40;;
33413;SDS011;60055;41.884;12.534;2023-12-20T09:16:32;47.83;;;27.40;;
33413;SDS011;60055;41.884;12.534;2023-12-20T09:18:58;52.75;;;29.00;;
33413;SDS011;60055;41.884;12.534;2023-12-20T09:21:23;63.25;;;30.05;;
33413;SDS011;60055;41.884;12.534;2023-12-20T09:23:49;56.22;;;30.08;;
33413;SDS011;60055;41.884;12.534;2023-12-20T09:26:14;55.28;;;30.55;;
33413;SDS011;60055;41.884;12.534;2023-12-20T09:28:40;51.80;;;30.08;;
33413;SDS011;60055;41.884;12.534;2023-12-20T09:31:05;49.95;;;27.65;;
33413;SDS011;60055;41.884;12.534;2023-12-20T09:33:31;56.70;;;30.02;;
33413;SDS011;60055;41.884;12.534;2023-12-20T09:35:57;47.15;;;27.38;;
33413;SDS011;60055;41.884;12.534;2023-12-20T09:38:23;50.33;;;27.40;;
33413;SDS011;60055;41.884;12.534;2023-12-20T09:40:48;51.20;;;27.52;;
33413;SDS011;60055;41.884;12.534;2023-12-20T09:43:14;44.45;;;25.80;;
33413;SDS011;60055;41.884;12.534;2023-12-20T09:45:45;44.60;;;25.90;;
33413;SDS011;60055;41.884;12.534;2023-12-20T09:48:11;47.72;;;27.85;;
33413;SDS011;60055;41.884;12.534;2023-12-20T09:50:39;53.50;;;26.98;;
33413;SDS011;60055;41.884;12.534;2023-12-20T09:53:05;44.92;;;27.38;;
33413;SDS011;60055;41.884;12.534;2023-12-20T09:55:34;46.88;;;26.65;;
33413;SDS011;60055;41.884;12.534;2023-12-20T09:58:01;48.67;;;25.52;;
33413;SDS011;60055;41.884;12.534;2023-12-20T10:00:27;46.25;;;23.30;;
33413;SDS011;60055;41.884;12.534;2023-12-20T10:02:56;40.22;;;22.38;;
33413;SDS011;60055;41.884;12.534;2023-12-20T10:05:30;37.10;;;22.35;;
33413;SDS011;60055;41.884;12.534;2023-12-20T10:07:56;38.78;;;22.83;;
33413;SDS011;60055;41.884;12.534;2023-12-20T10:10:22;39.22;;;22.20;;
33413;SDS011;60055;41.884;12.534;2023-12-20T10:13:01;43.40;;;23.08;;
33413;SDS011;60055;41.884;12.534;2023-12-20T10:15:27;37.35;;;22.45;;
33413;SDS011;60055;41.884;12.534;2023-12-20T10:17:52;35.78;;;22.33;;
33413;SDS011;60055;41.884;12.534;2023-12-20T10:20:19;37.67;;;22.05;;
33413;SDS011;60055;41.884;12.534;2023-12-20T10:22:45;37.20;;;21.17;;
33413;SDS011;60055;41.884;12.534;2023-12-20T10:25:11;38.85;;;22.77;;
33413;SDS011;60055;41.884;12.534;2023-12-20T10:27:37;40.58;;;21.98;;
33413;SDS011;60055;41.884;12.534;2023-12-20T10:30:02;41.65;;;20.55;;
33413;SDS011;60055;41.884;12.534;2023-12-20T10:32:28;36.45;;;22.00;;
33413;SDS011;60055;41.884;12.534;2023-12-20T10:34:54;38.65;;;21.42;;
33413;SDS011;60055;41.884;12.534;2023-12-20T10:37:20;38.65;;;20.05;;
33413;SDS011;60055;41.884;12.534;2023-12-20T10:39:52;38.90;;;20.73;;
33413;SDS011;60055;41.884;12.534;2023-12-20T10:42:30;37.05;;;21.02;;
33413;SDS011;60055;41.884;12.534;2023-12-20T10:44:56;41.17;;;20.88;;
33413;SDS011;60055;41.884;12.534;2023-12-20T10:47:22;38.00;;;22.17;;
33413;SDS011;60055;41.884;12.534;2023-12-20T10:49:49;44.40;;;22.42;;
33413;SDS011;60055;41.884;12.534;2023-12-20T10:52:17;39.70;;;22.90;;
33413;SDS011;60055;41.884;12.534;2023-12-20T10:54:42;37.33;;;23.23;;
33413;SDS011;60055;41.884;12.534;2023-12-20T10:57:09;39.55;;;23.25;;
33413;SDS011;60055;41.884;12.534;2023-12-20T10:59:36;45.33;;;24.20;;
33413;SDS011;60055;41.884;12.534;2023-12-20T11:02:02;45.35;;;22.88;;
33413;SDS011;60055;41.884;12.534;2023-12-20T11:04:51;40.60;;;23.08;;
33413;SDS011;60055;41.884;12.534;2023-12-20T11:10:00;40.22;;;23.35;;
33413;SDS011;60055;41.884;12.534;2023-12-20T11:12:53;41.05;;;24.38;;
33413;SDS011;60055;41.884;12.534;2023-12-20T11:15:24;39.90;;;25.55;;
33413;SDS011;60055;41.884;12.534;2023-12-20T11:17:56;45.05;;;25.63;;
33413;SDS011;60055;41.884;12.534;2023-12-20T11:20:22;47.92;;;25.60;;
33413;SDS011;60055;41.884;12.534;2023-12-20T11:22:54;45.65;;;25.20;;
33413;SDS011;60055;41.884;12.534;2023-12-20T11:25:21;43.03;;;25.17;;
33413;SDS011;60055;41.884;12.534;2023-12-20T11:28:06;42.80;;;24.90;;
33413;SDS011;60055;41.884;12.534;2023-12-20T11:30:52;47.30;;;25.10;;
33413;SDS011;60055;41.884;12.534;2023-12-20T11:33:22;44.92;;;24.23;;
33413;SDS011;60055;41.884;12.534;2023-12-20T11:35:48;41.53;;;24.83;;
33413;SDS011;60055;41.884;12.534;2023-12-20T11:38:14;43.28;;;26.00;;
33413;SDS011;60055;41.884;12.534;2023-12-20T11:40:40;38.08;;;23.92;;
33413;SDS011;60055;41.884;12.534;2023-12-20T11:43:07;36.60;;;23.88;;
33413;SDS011;60055;41.884;12.534;2023-12-20T11:45:33;42.70;;;23.92;;
33413;SDS011;60055;41.884;12.534;2023-12-20T11:48:00;44.15;;;24.55;;
33413;SDS011;60055;41.884;12.534;2023-12-20T11:50:27;37.75;;;23.00;;
33413;SDS011;60055;41.884;12.534;2023-12-20T11:52:54;43.92;;;24.27;;
33413;SDS011;60055;41.884;12.534;2023-12-20T11:55:20;39.67;;;24.45;;
33413;SDS011;60055;41.884;12.534;2023-12-20T11:57:52;39.22;;;22.17;;
33413;SDS011;60055;41.884;12.534;2023-12-20T12:00:18;43.38;;;24.80;;
33413;SDS011;60055;41.884;12.534;2023-12-20T12:02:54;35.88;;;23.33;;
33413;SDS011;60055;41.884;12.534;2023-12-20T12:05:20;38.63;;;22.83;;
33413;SDS011;60055;41.884;12.534;2023-12-20T12:07:45;36.42;;;22.17;;
33413;SDS011;60055;41.884;12.534;2023-12-20T12:10:11;32.25;;;21.20;;
33413;SDS011;60055;41.884;12.534;2023-12-20T12:12:36;36.63;;;23.00;;
33413;SDS011;60055;41.884;12.534;2023-12-20T12:15:02;38.90;;;24.42;;
33413;SDS011;60055;41.884;12.534;2023-12-20T12:17:28;35.45;;;23.55;;
33413;SDS011;60055;41.884;12.534;2023-12-20T12:20:01;33.10;;;23.98;;
33413;SDS011;60055;41.884;12.534;2023-12-20T12:22:28;35.25;;;21.88;;
33413;SDS011;60055;41.884;12.534;2023-12-20T12:24:53;35.42;;;23.27;;
33413;SDS011;60055;41.884;12.534;2023-12-20T12:27:19;39.08;;;23.20;;
33413;SDS011;60055;41.884;12.534;2023-12-20T12:30:03;37.42;;;23.33;;
33413;SDS011;60055;41.884;12.534;2023-12-20T12:32:32;31.27;;;21.60;;
33413;SDS011;60055;41.884;12.534;2023-12-20T12:34:57;31.58;;;22.88;;
33413;SDS011;60055;41.884;12.534;2023-12-20T12:37:23;36.47;;;22.52;;
33413;SDS011;60055;41.884;12.534;2023-12-20T12:39:54;37.88;;;21.65;;
33413;SDS011;60055;41.884;12.534;2023-12-20T12:42:20;31.40;;;21.30;;
33413;SDS011;60055;41.884;12.534;2023-12-20T12:44:46;31.30;;;20.73;;
33413;SDS011;60055;41.884;12.534;2023-12-20T12:47:12;31.25;;;22.35;;
33413;SDS011;60055;41.884;12.534;2023-12-20T12:49:37;34.15;;;22.52;;
33413;SDS011;60055;41.884;12.534;2023-12-20T12:52:05;36.72;;;24.00;;
33413;SDS011;60055;41.884;12.534;2023-12-20T12:54:30;33.78;;;23.88;;
33413;SDS011;60055;41.884;12.534;2023-12-20T12:56:56;33.45;;;23.60;;
33413;SDS011;60055;41.884;12.534;2023-12-20T12:59:23;35.20;;;22.83;;
33413;SDS011;60055;41.884;12.534;2023-12-20T13:01:48;39.00;;;24.63;;
33413;SDS011;60055;41.884;12.534;2023-12-20T13:04:14;37.75;;;24.17;;
33413;SDS011;60055;41.884;12.534;2023-12-20T13:06:39;33.83;;;22.00;;
33413;SDS011;60055;41.884;12.534;2023-12-20T13:09:07;33.42;;;23.00;;
33413;SDS011;60055;41.884;12.534;2023-12-20T13:11:34;33.75;;;22.80;;
33413;SDS011;60055;41.884;12.534;2023-12-20T13:14:00;37.97;;;24.20;;
33413;SDS011;60055;41.884;12.534;2023-12-20T13:16:25;36.83;;;25.23;;
33413;SDS011;60055;41.884;12.534;2023-12-20T13:18:51;35.90;;;23.85;;
33413;SDS011;60055;41.884;12.534;2023-12-20T13:21:16;37.08;;;25.42;;
33413;SDS011;60055;41.884;12.534;2023-12-20T13:23:42;40.45;;;28.10;;
33413;SDS011;60055;41.884;12.534;2023-12-20T13:26:08;40.20;;;26.20;;
33413;SDS011;60055;41.884;12.534;2023-12-20T13:28:33;40.97;;;26.13;;
33413;SDS011;60055;41.884;12.534;2023-12-20T13:30:58;35.72;;;23.92;;
33413;SDS011;60055;41.884;12.534;2023-12-20T13:33:24;37.45;;;24.15;;
33413;SDS011;60055;41.884;12.534;2023-12-20T13:35:50;34.00;;;24.52;;
33413;SDS011;60055;41.884;12.534;2023-12-20T13:38:16;37.72;;;26.83;;
33413;SDS011;60055;41.884;12.534;2023-12-20T13:40:41;31.33;;;21.95;;
33413;SDS011;60055;41.884;12.534;2023-12-20T13:43:07;29.80;;;20.98;;
33413;SDS011;60055;41.884;12.534;2023-12-20T13:45:33;31.02;;;20.95;;
33413;SDS011;60055;41.884;12.534;2023-12-20T13:47:59;27.75;;;18.27;;
33413;SDS011;60055;41.884;12.534;2023-12-20T13:50:24;27.45;;;17.58;;
33413;SDS011;60055;41.884;12.534;2023-12-20T13:52:51;26.10;;;16.85;;
33413;SDS011;60055;41.884;12.534;2023-12-20T13:55:16;23.70;;;16.00;;
33413;SDS011;60055;41.884;12.534;2023-12-20T13:57:42;23.52;;;16.02;;
33413;SDS011;60055;41.884;12.534;2023-12-20T14:00:07;22.08;;;13.32;;
33413;SDS011;60055;41.884;12.534;2023-12-20T14:02:39;27.17;;;16.20;;
33413;SDS011;60055;41.884;12.534;2023-12-20T14:05:06;25.02;;;14.80;;